createdAt,value
2023-03-29T00:01:35.413Z,82.12
2023-03-29T00:04:04.549Z,81.49
2023-03-29T00:06:33.072Z,81.54
2023-03-29T00:09:00.458Z,82.17
2023-03-29T00:11:27.392Z,81.98
2023-03-29T00:13:54.228Z,81.87
2023-03-29T00:16:20.855Z,81.62
2023-03-29T00:18:47.649Z,81.52
2023-03-29T00:21:14.170Z,81.38
2023-03-29T00:23:40.755Z,81.54
2023-03-29T00:26:08.334Z,81.74
2023-03-29T00:28:35.404Z,81.55
2023-03-29T00:31:08.195Z,81.93
2023-03-29T00:33:34.680Z,81.77
2023-03-29T00:36:01.898Z,81.61
2023-03-29T00:38:28.587Z,81.47
2023-03-29T00:40:54.991Z,81.95
2023-03-29T00:43:21.519Z,81.70
2023-03-29T00:45:48.116Z,81.68
2023-03-29T00:48:24.397Z,81.71
2023-03-29T00:50:56.202Z,81.22
2023-03-29T00:53:28.451Z,81.59
2023-03-29T00:56:07.417Z,81.53
2023-03-29T00:58:43.519Z,81.10
2023-03-29T01:01:17.557Z,81.34
2023-03-29T01:03:50.136Z,81.74
2023-03-29T01:06:19.480Z,81.17
2023-03-29T01:09:01.327Z,81.45
2023-03-29T01:11:32.427Z,81.29
2023-03-29T01:14:05.556Z,80.98
2023-03-29T01:16:35.132Z,81.47
2023-03-29T01:19:02.228Z,81.17
2023-03-29T01:21:39.725Z,81.12
2023-03-29T01:24:45.487Z,80.42
2023-03-29T01:27:31.786Z,80.19
2023-03-29T01:30:05.505Z,80.48
2023-03-29T01:32:38.876Z,80.42
2023-03-29T01:35:15.900Z,80.80
2023-03-29T01:38:05.482Z,80.58
2023-03-29T01:40:33.653Z,79.98
2023-03-29T01:43:34.856Z,80.24
2023-03-29T01:46:08.092Z,79.97
2023-03-29T01:48:49.936Z,79.58
2023-03-29T01:51:24.767Z,78.97
2023-03-29T01:54:03.697Z,79.03
2023-03-29T01:56:36.873Z,79.11
2023-03-29T01:59:08.274Z,79.14
2023-03-29T02:01:40.410Z,78.72
2023-03-29T02:04:13.141Z,79.27
2023-03-29T02:06:41.725Z,79.53
2023-03-29T02:09:09.068Z,79.23
2023-03-29T02:11:36.174Z,79.02
2023-03-29T02:14:02.743Z,79.57
2023-03-29T02:16:29.191Z,79.67
2023-03-29T02:18:57.659Z,80.09
2023-03-29T02:21:51.781Z,79.98
2023-03-29T02:24:20.649Z,80.29
2023-03-29T02:26:48.077Z,80.43
2023-03-29T02:29:15.120Z,80.33
2023-03-29T02:31:48.929Z,80.06
2023-03-29T02:34:28.429Z,80.11
2023-03-29T02:37:00.214Z,80.38
2023-03-29T02:39:28.965Z,80.72
2023-03-29T02:41:56.757Z,80.72
2023-03-29T02:44:27.780Z,80.88
2023-03-29T02:46:58.616Z,80.28
2023-03-29T02:49:25.333Z,80.88
2023-03-29T02:51:56.073Z,80.93
2023-03-29T02:54:25.934Z,81.02
2023-03-29T02:57:01.064Z,80.92
2023-03-29T02:59:29.941Z,80.88
2023-03-29T03:01:56.636Z,80.64
2023-03-29T03:04:23.137Z,81.55
2023-03-29T03:06:49.756Z,81.40
2023-03-29T03:09:16.705Z,80.99
2023-03-29T03:11:43.122Z,81.17
2023-03-29T03:14:09.768Z,81.29
2023-03-29T03:16:37.144Z,81.46
2023-03-29T03:19:03.835Z,81.60
2023-03-29T03:21:30.320Z,81.98
2023-03-29T03:23:56.945Z,81.96
2023-03-29T03:26:24.981Z,81.55
2023-03-29T03:28:51.390Z,82.00
2023-03-29T03:31:17.797Z,81.96
2023-03-29T03:33:44.734Z,82.13
2023-03-29T03:36:11.430Z,82.04
2023-03-29T03:38:38.516Z,82.20
2023-03-29T03:41:06.980Z,81.90
2023-03-29T03:43:34.119Z,82.11
2023-03-29T03:46:01.457Z,82.45
2023-03-29T03:48:27.955Z,82.41
2023-03-29T03:50:59.123Z,82.51
2023-03-29T03:53:27.271Z,82.32
2023-03-29T03:55:55.963Z,82.43
2023-03-29T03:58:23.361Z,82.58
2023-03-29T04:00:50.935Z,82.48
2023-03-29T04:03:18.454Z,82.58
2023-03-29T04:05:47.077Z,83.00
2023-03-29T04:08:14.890Z,82.70
2023-03-29T04:10:42.045Z,82.60
2023-03-29T04:13:08.513Z,82.52
2023-03-29T04:15:41.354Z,82.37
2023-03-29T04:18:07.875Z,82.83
2023-03-29T04:20:34.637Z,82.74
2023-03-29T04:23:01.533Z,82.87
2023-03-29T04:25:28.468Z,83.03
2023-03-29T04:27:54.958Z,82.59
2023-03-29T04:30:21.822Z,82.54
2023-03-29T04:32:48.740Z,82.67
2023-03-29T04:35:15.257Z,82.71
2023-03-29T04:37:41.856Z,82.99
2023-03-29T04:40:09.869Z,82.81
2023-03-29T04:42:37.434Z,82.69
2023-03-29T04:45:06.923Z,83.03
2023-03-29T04:47:36.254Z,83.12
2023-03-29T04:50:03.806Z,82.58
2023-03-29T04:52:33.182Z,83.01
2023-03-29T04:55:04.439Z,83.26
2023-03-29T04:57:31.004Z,83.23
2023-03-29T04:59:57.477Z,83.22
2023-03-29T05:02:24.121Z,83.23
2023-03-29T05:04:50.633Z,82.87
2023-03-29T05:07:18.184Z,82.94
2023-03-29T05:09:44.549Z,82.87
2023-03-29T05:12:11.100Z,82.63
2023-03-29T05:14:37.547Z,82.70
2023-03-29T05:17:05.056Z,83.13
2023-03-29T05:19:31.991Z,83.20
2023-03-29T05:21:59.085Z,82.88
2023-03-29T05:24:25.746Z,82.78
2023-03-29T05:26:52.375Z,82.54
2023-03-29T05:29:19.042Z,83.27
2023-03-29T05:31:45.825Z,82.76
2023-03-29T05:34:12.221Z,82.93
2023-03-29T05:36:39.164Z,82.99
2023-03-29T05:39:06.446Z,82.67
2023-03-29T05:41:33.643Z,82.50
2023-03-29T05:44:00.008Z,82.86
2023-03-29T05:46:26.968Z,82.65
2023-03-29T05:48:53.596Z,82.18
2023-03-29T05:51:24.108Z,82.74
2023-03-29T05:53:51.440Z,83.05
2023-03-29T05:56:18.998Z,82.51
2023-03-29T05:58:49.478Z,82.56
2023-03-29T06:01:18.134Z,82.69
2023-03-29T06:03:48.088Z,82.44
2023-03-29T06:06:16.405Z,82.25
2023-03-29T06:08:43.805Z,82.32
2023-03-29T06:11:13.222Z,82.82
2023-03-29T06:13:40.067Z,82.08
2023-03-29T06:16:10.765Z,82.14
2023-03-29T06:18:40.236Z,82.50
2023-03-29T06:21:09.164Z,82.41
2023-03-29T06:23:36.452Z,82.13
2023-03-29T06:26:05.612Z,82.36
2023-03-29T06:28:32.148Z,82.46
2023-03-29T06:31:02.923Z,82.36
2023-03-29T06:33:32.413Z,82.28
2023-03-29T06:35:58.997Z,81.94
2023-03-29T06:38:28.048Z,82.36
2023-03-29T06:41:05.974Z,82.41
2023-03-29T06:43:33.448Z,82.31
2023-03-29T06:46:00.655Z,82.20
2023-03-29T06:48:27.233Z,82.03
2023-03-29T06:50:54.565Z,82.48
2023-03-29T06:53:22.094Z,82.58
2023-03-29T06:55:50.699Z,82.72
2023-03-29T06:58:17.087Z,82.67
2023-03-29T07:00:43.465Z,83.07
2023-03-29T07:03:13.346Z,83.12
2023-03-29T07:05:42.045Z,83.67
2023-03-29T07:08:08.669Z,83.70
2023-03-29T07:10:41.232Z,83.43
2023-03-29T07:13:12.211Z,83.91
2023-03-29T07:15:43.254Z,84.26
2023-03-29T07:18:10.402Z,83.55
2023-03-29T07:20:38.751Z,83.80
2023-03-29T07:23:06.769Z,83.49
2023-03-29T07:25:33.905Z,83.36
2023-03-29T07:28:00.315Z,83.74
2023-03-29T07:30:31.973Z,83.70
2023-03-29T07:32:59.145Z,83.49
2023-03-29T07:35:26.815Z,82.96
2023-03-29T07:37:54.934Z,83.37
2023-03-29T07:40:23.636Z,83.11
2023-03-29T07:42:56.433Z,83.11
2023-03-29T07:45:26.446Z,83.38
2023-03-29T07:47:56.484Z,83.07
2023-03-29T07:50:23.120Z,83.18
2023-03-29T07:52:50.131Z,83.00
2023-03-29T07:55:17.032Z,82.86
2023-03-29T07:57:44.179Z,82.43
2023-03-29T08:00:16.154Z,82.20
2023-03-29T08:02:44.678Z,82.38
2023-03-29T08:05:13.637Z,82.47
2023-03-29T08:07:44.622Z,82.58
2023-03-29T08:10:13.774Z,82.46
2023-03-29T08:12:41.992Z,82.59
2023-03-29T08:15:09.428Z,82.29
2023-03-29T08:17:36.230Z,82.60
2023-03-29T08:20:04.173Z,82.17
2023-03-29T08:22:32.240Z,82.95
2023-03-29T08:24:58.987Z,82.45
2023-03-29T08:27:25.883Z,82.10
2023-03-29T08:29:52.277Z,82.60
2023-03-29T08:32:18.641Z,82.36
2023-03-29T08:34:45.193Z,82.98
2023-03-29T08:37:11.621Z,82.48
2023-03-29T08:39:38.531Z,83.01
2023-03-29T08:42:24.103Z,82.82
2023-03-29T08:45:06.258Z,82.63
2023-03-29T08:47:47.728Z,82.43
2023-03-29T08:50:15.092Z,82.34
2023-03-29T08:52:46.733Z,82.45
2023-03-29T08:55:37.959Z,82.61
2023-03-29T08:58:07.924Z,82.77
2023-03-29T09:00:42.889Z,82.88
2023-03-29T09:03:31.646Z,83.02
2023-03-29T09:06:04.754Z,82.75
2023-03-29T09:08:31.619Z,82.83
2023-03-29T09:11:16.462Z,83.06
2023-03-29T09:13:56.884Z,82.64
2023-03-29T09:16:33.402Z,82.81
2023-03-29T09:19:39.342Z,83.07
2023-03-29T09:22:14.091Z,82.30
2023-03-29T09:25:11.404Z,83.20
2023-03-29T09:27:58.131Z,83.42
2023-03-29T09:30:27.477Z,83.24
2023-03-29T09:33:17.085Z,83.26
2023-03-29T09:35:52.876Z,83.18
2023-03-29T09:38:22.104Z,83.56
2023-03-29T09:40:54.984Z,83.55
2023-03-29T09:43:31.952Z,83.31
2023-03-29T09:46:03.511Z,83.20
2023-03-29T09:48:34.526Z,84.00
2023-03-29T09:51:02.337Z,83.13
2023-03-29T09:53:28.970Z,82.93
2023-03-29T09:55:55.776Z,83.45
2023-03-29T09:58:31.667Z,83.40
2023-03-29T10:01:00.030Z,83.18
2023-03-29T10:03:31.801Z,82.50
2023-03-29T10:06:00.267Z,82.81
2023-03-29T10:08:36.524Z,83.19
2023-03-29T10:11:14.735Z,83.59
2023-03-29T10:13:50.593Z,82.71
2023-03-29T10:16:23.061Z,82.84
2023-03-29T10:18:50.363Z,82.44
2023-03-29T10:21:22.079Z,82.71
2023-03-29T10:23:49.838Z,82.39
2023-03-29T10:26:29.332Z,82.01
2023-03-29T10:28:57.390Z,82.17
2023-03-29T10:31:25.053Z,82.58
2023-03-29T10:33:54.653Z,82.35
2023-03-29T10:36:23.140Z,82.26
2023-03-29T10:38:52.081Z,82.12
2023-03-29T10:41:21.771Z,82.18
2023-03-29T10:43:51.090Z,82.20
2023-03-29T10:46:23.666Z,82.07
2023-03-29T10:48:59.002Z,81.98
2023-03-29T10:51:30.084Z,83.08
2023-03-29T10:54:01.425Z,83.63
2023-03-29T10:56:41.521Z,83.98
2023-03-29T10:59:24.194Z,83.71
2023-03-29T11:02:15.719Z,83.82
2023-03-29T11:05:09.061Z,83.59
2023-03-29T11:07:45.075Z,84.07
2023-03-29T11:10:47.650Z,84.18
2023-03-29T11:13:19.970Z,84.25
2023-03-29T11:16:08.424Z,85.14
2023-03-29T11:18:53.822Z,85.53
2023-03-29T11:21:47.026Z,85.98
2023-03-29T11:24:27.745Z,86.64
2023-03-29T11:27:15.980Z,87.71
2023-03-29T11:29:53.452Z,88.05
2023-03-29T11:32:38.140Z,88.24
2023-03-29T11:35:23.523Z,88.39
2023-03-29T11:37:49.854Z,88.20
2023-03-29T11:40:39.299Z,88.23
2023-03-29T11:43:20.385Z,88.22
2023-03-29T11:45:53.848Z,87.08
2023-03-29T11:48:24.849Z,86.83
2023-03-29T11:50:58.732Z,86.59
2023-03-29T11:53:48.989Z,86.48
2023-03-29T11:56:24.001Z,86.18
2023-03-29T11:58:56.587Z,86.16
2023-03-29T12:01:33.438Z,85.75
2023-03-29T12:04:07.761Z,85.59
2023-03-29T12:06:53.350Z,85.85
2023-03-29T12:09:28.841Z,85.63
2023-03-29T12:12:09.513Z,85.68
2023-03-29T12:14:49.217Z,85.70
2023-03-29T12:17:23.062Z,85.79
2023-03-29T12:20:04.474Z,85.39
2023-03-29T12:22:32.378Z,85.33
2023-03-29T12:25:00.174Z,85.35
2023-03-29T12:27:46.857Z,85.54
2023-03-29T12:30:46.521Z,85.06
2023-03-29T12:33:43.619Z,85.25
2023-03-29T12:36:31.475Z,85.39
2023-03-29T12:38:58.281Z,85.79
2023-03-29T12:41:25.051Z,85.87
2023-03-29T12:43:51.591Z,86.19
2023-03-29T12:46:26.743Z,86.30
2023-03-29T12:49:06.062Z,86.66
2023-03-29T12:51:34.579Z,86.62
2023-03-29T12:54:15.048Z,87.21
2023-03-29T12:56:53.998Z,87.28
2023-03-29T12:59:44.330Z,87.27
2023-03-29T13:02:22.729Z,87.42
2023-03-29T13:04:57.941Z,87.93
2023-03-29T13:07:26.338Z,87.68
2023-03-29T13:09:58.467Z,87.65
2023-03-29T13:12:30.792Z,87.58
2023-03-29T13:15:26.901Z,87.45
2023-03-29T13:18:03.813Z,87.42
2023-03-29T13:20:52.021Z,87.14
2023-03-29T13:24:00.743Z,86.98
2023-03-29T13:26:53.988Z,86.85
2023-03-29T13:29:37.353Z,86.83
2023-03-29T13:32:36.577Z,87.26
2023-03-29T13:35:38.604Z,86.81
2023-03-29T13:38:16.303Z,86.76
2023-03-29T13:40:47.637Z,86.86
2023-03-29T13:43:20.167Z,86.88
2023-03-29T13:45:58.762Z,86.74
2023-03-29T13:48:29.604Z,87.16
2023-03-29T13:51:00.895Z,86.75
2023-03-29T13:53:49.620Z,86.74
2023-03-29T13:56:23.078Z,86.72
2023-03-29T13:58:53.910Z,86.64
2023-03-29T14:01:39.053Z,86.66
2023-03-29T14:04:12.902Z,86.47
2023-03-29T14:06:42.805Z,86.46
2023-03-29T14:09:12.788Z,86.12
2023-03-29T14:11:45.030Z,85.91
2023-03-29T14:14:11.596Z,85.98
2023-03-29T14:16:40.088Z,85.39
2023-03-29T14:19:15.312Z,85.39
2023-03-29T14:21:42.570Z,85.64
2023-03-29T14:24:20.702Z,85.71
2023-03-29T14:26:47.923Z,85.51
2023-03-29T14:29:15.076Z,85.39
2023-03-29T14:31:42.489Z,85.33
2023-03-29T14:34:18.767Z,85.26
2023-03-29T14:36:46.874Z,85.28
2023-03-29T14:39:20.984Z,85.20
2023-03-29T14:41:55.397Z,85.09
2023-03-29T14:44:26.114Z,84.82
2023-03-29T14:46:53.712Z,84.81
2023-03-29T14:49:22.920Z,84.41
2023-03-29T14:51:50.265Z,84.49
2023-03-29T14:54:20.903Z,83.99
2023-03-29T14:56:48.731Z,84.33
2023-03-29T14:59:49.674Z,83.73
2023-03-29T15:02:33.462Z,83.55
2023-03-29T15:05:05.794Z,83.44
2023-03-29T15:07:34.563Z,82.57
2023-03-29T15:10:03.120Z,82.40
2023-03-29T15:12:30.880Z,82.21
2023-03-29T15:14:58.198Z,81.47
2023-03-29T15:17:43.026Z,81.75
2023-03-29T15:20:21.508Z,82.05
2023-03-29T15:23:16.959Z,82.09
2023-03-29T15:25:50.426Z,81.59
2023-03-29T15:28:34.855Z,81.38
2023-03-29T15:33:34.828Z,81.10
2023-03-29T15:36:03.420Z,80.53
2023-03-29T15:38:42.622Z,80.40
2023-03-29T15:41:10.768Z,80.54
2023-03-29T15:43:37.447Z,79.74
2023-03-29T15:46:04.322Z,79.79
2023-03-29T15:48:33.664Z,79.74
2023-03-29T15:51:04.560Z,79.70
2023-03-29T15:53:32.708Z,79.69
2023-03-29T15:56:02.478Z,80.20
2023-03-29T15:58:31.818Z,80.05
2023-03-29T16:01:00.708Z,80.17
2023-03-29T16:03:27.356Z,79.99
2023-03-29T16:05:56.836Z,80.03
2023-03-29T16:08:25.076Z,80.32
2023-03-29T16:10:51.719Z,80.08
2023-03-29T16:13:18.197Z,80.34
2023-03-29T16:15:45.768Z,80.40
2023-03-29T16:18:12.156Z,80.31
2023-03-29T16:20:38.904Z,80.59
2023-03-29T16:23:09.728Z,80.43
2023-03-29T16:25:38.347Z,80.80
2023-03-29T16:28:05.621Z,80.94
2023-03-29T16:30:32.626Z,80.39
2023-03-29T16:32:59.196Z,80.57
2023-03-29T16:35:28.745Z,80.78
2023-03-29T16:37:55.379Z,80.82
2023-03-29T16:40:21.850Z,81.11
2023-03-29T16:42:48.386Z,81.09
2023-03-29T16:45:15.535Z,81.42
2023-03-29T16:47:44.357Z,81.65
2023-03-29T16:50:19.754Z,81.65
2023-03-29T16:52:47.890Z,81.67
2023-03-29T16:55:15.698Z,82.32
2023-03-29T16:57:42.676Z,82.18
2023-03-29T17:00:11.238Z,82.50
2023-03-29T17:02:37.797Z,82.68
2023-03-29T17:05:04.469Z,82.88
2023-03-29T17:07:30.956Z,82.70
2023-03-29T17:09:57.423Z,82.88
2023-03-29T17:12:24.060Z,82.96
2023-03-29T17:14:51.304Z,83.17
2023-03-29T17:17:17.724Z,83.50
2023-03-29T17:19:44.209Z,83.49
2023-03-29T17:22:10.697Z,83.62
2023-03-29T17:24:37.072Z,83.89
2023-03-29T17:27:03.566Z,83.77
2023-03-29T17:29:30.106Z,83.87
2023-03-29T17:31:56.551Z,83.81
2023-03-29T17:34:23.174Z,84.11
2023-03-29T17:36:53.244Z,84.07
2023-03-29T17:39:19.699Z,84.35
2023-03-29T17:41:47.240Z,84.64
2023-03-29T17:44:13.837Z,84.68
2023-03-29T17:46:40.316Z,84.22
2023-03-29T17:49:07.248Z,84.56
2023-03-29T17:51:33.628Z,84.75
2023-03-29T17:54:00.175Z,84.73
2023-03-29T17:56:26.634Z,85.00
2023-03-29T17:58:53.475Z,84.70
2023-03-29T18:01:20.336Z,85.00
2023-03-29T18:03:50.464Z,85.15
2023-03-29T18:06:20.171Z,85.26
2023-03-29T18:08:47.305Z,84.97
2023-03-29T18:11:17.208Z,85.23
2023-03-29T18:13:44.753Z,85.48
2023-03-29T18:16:11.442Z,85.35
2023-03-29T18:18:38.613Z,85.79
2023-03-29T18:21:06.935Z,85.50
2023-03-29T18:23:33.814Z,85.71
2023-03-29T18:26:02.798Z,85.53
2023-03-29T18:28:30.574Z,85.84
2023-03-29T18:30:57.212Z,85.71
2023-03-29T18:33:24.440Z,85.60
2023-03-29T18:35:51.856Z,86.25
2023-03-29T18:38:22.415Z,86.25
2023-03-29T18:40:50.510Z,86.23
2023-03-29T18:43:17.017Z,86.34
2023-03-29T18:45:44.489Z,86.40
2023-03-29T18:48:11.074Z,86.36
2023-03-29T18:50:37.621Z,86.62
2023-03-29T18:53:04.445Z,86.71
2023-03-29T18:55:31.097Z,86.57
2023-03-29T18:57:57.465Z,86.67
2023-03-29T19:00:23.938Z,86.53
2023-03-29T19:02:50.601Z,86.66
2023-03-29T19:05:17.043Z,86.94
2023-03-29T19:07:43.512Z,86.66
2023-03-29T19:10:10.223Z,86.63
2023-03-29T19:12:36.757Z,86.95
2023-03-29T19:15:03.526Z,87.11
2023-03-29T19:17:30.102Z,87.24
2023-03-29T19:19:56.760Z,87.31
2023-03-29T19:22:23.356Z,87.63
2023-03-29T19:24:49.820Z,87.42
2023-03-29T19:27:16.585Z,87.54
2023-03-29T19:29:42.989Z,87.59
2023-03-29T19:32:09.425Z,87.78
2023-03-29T19:34:36.189Z,88.61
2023-03-29T19:37:02.645Z,88.40
2023-03-29T19:39:29.804Z,88.65
2023-03-29T19:41:56.588Z,88.46
2023-03-29T19:44:26.034Z,88.53
2023-03-29T19:46:52.532Z,89.06
2023-03-29T19:49:19.175Z,88.71
2023-03-29T19:51:45.620Z,89.42
2023-03-29T19:54:13.228Z,89.69
2023-03-29T19:56:40.633Z,90.19
2023-03-29T19:59:08.900Z,90.27
2023-03-29T20:01:37.493Z,90.67
2023-03-29T20:04:04.670Z,90.64
2023-03-29T20:06:31.073Z,90.85
2023-03-29T20:08:58.654Z,90.70
2023-03-29T20:11:25.167Z,91.46
2023-03-29T20:13:51.582Z,91.06
2023-03-29T20:16:19.153Z,91.38
2023-03-29T20:18:46.500Z,91.99
2023-03-29T20:21:16.564Z,91.45
2023-03-29T20:23:43.369Z,91.35
2023-03-29T20:26:10.507Z,91.07
2023-03-29T20:28:37.649Z,91.40
2023-03-29T20:31:06.826Z,91.12
2023-03-29T20:33:33.552Z,91.07
2023-03-29T20:36:02.993Z,91.36
2023-03-29T20:38:29.461Z,91.88
2023-03-29T20:40:55.863Z,91.75
2023-03-29T20:43:22.637Z,92.06
2023-03-29T20:46:14.799Z,92.02
2023-03-29T20:48:54.062Z,92.12
2023-03-29T20:51:22.246Z,92.14
2023-03-29T20:53:48.796Z,92.25
2023-03-29T20:56:15.241Z,92.41
2023-03-29T20:58:43.752Z,92.61
2023-03-29T21:01:14.292Z,92.43
2023-03-29T21:03:42.166Z,92.66
2023-03-29T21:06:09.533Z,92.33
2023-03-29T21:08:35.968Z,92.51
2023-03-29T21:11:03.224Z,91.95
2023-03-29T21:13:30.029Z,91.97
2023-03-29T21:15:56.943Z,91.87
2023-03-29T21:18:23.423Z,91.88
2023-03-29T21:20:49.779Z,91.83
2023-03-29T21:23:16.315Z,92.03
2023-03-29T21:25:43.964Z,92.07
2023-03-29T21:28:12.116Z,92.01
2023-03-29T21:30:38.759Z,91.60
2023-03-29T21:33:05.606Z,91.98
2023-03-29T21:35:35.612Z,91.55
2023-03-29T21:38:02.305Z,91.60
2023-03-29T21:40:28.725Z,91.58
2023-03-29T21:42:55.317Z,91.67
2023-03-29T21:45:21.782Z,91.03
2023-03-29T21:47:48.273Z,91.14
2023-03-29T21:50:16.109Z,91.14
2023-03-29T21:52:42.547Z,90.99
2023-03-29T21:55:13.067Z,90.98
2023-03-29T21:57:48.901Z,90.97
2023-03-29T22:00:17.396Z,90.77
2023-03-29T22:02:45.853Z,90.79
2023-03-29T22:05:12.425Z,90.52
2023-03-29T22:07:39.772Z,90.34
2023-03-29T22:10:12.324Z,90.36
2023-03-29T22:12:39.600Z,90.55
2023-03-29T22:15:08.558Z,90.53
2023-03-29T22:17:36.024Z,90.50
2023-03-29T22:20:13.799Z,90.36
2023-03-29T22:22:47.035Z,89.93
2023-03-29T22:25:13.597Z,90.10
2023-03-29T22:27:40.297Z,90.13
2023-03-29T22:30:08.071Z,89.74
2023-03-29T22:32:34.557Z,89.66
2023-03-29T22:35:01.098Z,89.67
2023-03-29T22:37:27.530Z,89.78
2023-03-29T22:40:01.895Z,89.84
2023-03-29T22:42:28.361Z,89.65
2023-03-29T22:44:54.761Z,89.66
2023-03-29T22:47:22.201Z,89.77
2023-03-29T22:49:48.666Z,89.43
2023-03-29T22:52:16.190Z,89.51
2023-03-29T22:54:43.687Z,89.40
2023-03-29T22:57:10.125Z,89.36
2023-03-29T22:59:36.536Z,89.25
2023-03-29T23:02:03.108Z,89.24
2023-03-29T23:04:29.781Z,89.16
2023-03-29T23:07:23.280Z,88.46
2023-03-29T23:09:50.552Z,88.62
2023-03-29T23:12:17.063Z,88.53
2023-03-29T23:14:59.069Z,88.71
2023-03-29T23:17:25.525Z,88.39
2023-03-29T23:19:52.942Z,88.47
2023-03-29T23:22:34.215Z,87.90
2023-03-29T23:25:11.968Z,87.78
2023-03-29T23:27:38.374Z,87.37
2023-03-29T23:30:07.503Z,87.18
2023-03-29T23:32:33.966Z,87.27
2023-03-29T23:35:19.545Z,86.62
2023-03-29T23:38:19.744Z,86.90
2023-03-29T23:40:58.826Z,86.73
2023-03-29T23:43:27.234Z,86.65
2023-03-29T23:45:57.639Z,85.88
2023-03-29T23:48:30.248Z,85.97
2023-03-29T23:50:59.657Z,85.79
2023-03-29T23:53:34.151Z,86.14
2023-03-29T23:56:03.980Z,85.92
2023-03-29T23:58:35.940Z,85.55
